createdAt,value
2023-03-25T00:00:16.992Z,62.80
2023-03-25T00:02:45.552Z,62.70
2023-03-25T00:05:15.041Z,62.80
2023-03-25T00:07:42.978Z,63.00
2023-03-25T00:10:10.795Z,62.90
2023-03-25T00:12:37.696Z,62.90
2023-03-25T00:15:06.206Z,62.90
2023-03-25T00:17:33.196Z,62.80
2023-03-25T00:20:05.961Z,62.90
2023-03-25T00:22:32.906Z,63.00
2023-03-25T00:24:59.731Z,63.00
2023-03-25T00:27:26.604Z,63.00
2023-03-25T00:29:53.440Z,62.90
2023-03-25T00:32:21.397Z,63.10
2023-03-25T00:34:48.337Z,63.20
2023-03-25T00:37:22.011Z,63.10
2023-03-25T00:39:49.206Z,63.20
2023-03-25T00:42:17.001Z,63.20
2023-03-25T00:44:44.089Z,63.30
2023-03-25T00:47:12.897Z,63.30
2023-03-25T00:49:39.805Z,63.30
2023-03-25T00:52:06.772Z,63.20
2023-03-25T00:54:34.502Z,63.30
2023-03-25T00:57:01.371Z,63.40
2023-03-25T00:59:28.312Z,63.50
2023-03-25T01:01:56.517Z,63.50
2023-03-25T01:04:23.454Z,63.50
2023-03-25T01:06:53.721Z,63.40
2023-03-25T01:09:20.943Z,63.50
2023-03-25T01:11:48.811Z,63.60
2023-03-25T01:14:17.286Z,63.60
2023-03-25T01:16:44.560Z,63.70
2023-03-25T01:19:11.812Z,63.70
2023-03-25T01:21:38.798Z,63.80
2023-03-25T01:24:07.152Z,63.90
2023-03-25T01:26:34.692Z,64.00
2023-03-25T01:29:02.537Z,64.20
2023-03-25T01:31:32.441Z,64.20
2023-03-25T01:33:59.785Z,64.30
2023-03-25T01:36:29.756Z,64.30
2023-03-25T01:38:59.231Z,64.40
2023-03-25T01:41:35.717Z,64.50
2023-03-25T01:44:29.436Z,64.60
2023-03-25T01:46:57.364Z,64.70
2023-03-25T01:49:33.787Z,64.80
2023-03-25T01:52:03.524Z,64.90
2023-03-25T01:54:31.037Z,64.90
2023-03-25T01:56:58.204Z,65.00
2023-03-25T01:59:26.192Z,65.00
2023-03-25T02:01:53.740Z,65.00
2023-03-25T02:05:02.604Z,65.00
2023-03-25T02:07:32.869Z,65.10
2023-03-25T02:10:02.512Z,65.10
2023-03-25T02:12:29.504Z,65.10
2023-03-25T02:14:57.920Z,65.20
2023-03-25T02:17:24.833Z,65.30
2023-03-25T02:20:07.147Z,65.30
2023-03-25T02:22:39.864Z,65.20
2023-03-25T02:25:10.189Z,65.20
2023-03-25T02:27:42.180Z,65.20
2023-03-25T02:30:09.182Z,65.20
2023-03-25T02:32:56.984Z,65.10
2023-03-25T02:35:42.248Z,65.20
2023-03-25T02:38:11.998Z,65.20
2023-03-25T02:40:48.079Z,65.20
2023-03-25T02:43:17.955Z,65.30
2023-03-25T02:45:46.961Z,65.40
2023-03-25T02:48:19.646Z,65.30
2023-03-25T02:50:55.081Z,65.40
2023-03-25T02:53:34.934Z,65.40
2023-03-25T02:56:04.574Z,65.40
2023-03-25T02:58:31.817Z,65.40
2023-03-25T03:00:59.304Z,65.40
2023-03-25T03:03:27.469Z,65.40
2023-03-25T03:05:57.687Z,65.40
2023-03-25T03:08:30.631Z,65.40
2023-03-25T03:11:09.612Z,65.40
2023-03-25T03:13:59.575Z,65.40
2023-03-25T03:16:32.603Z,65.40
2023-03-25T03:19:05.695Z,65.40
2023-03-25T03:21:51.705Z,65.30
2023-03-25T03:24:21.554Z,65.40
2023-03-25T03:26:50.996Z,65.50
2023-03-25T03:29:19.861Z,65.60
2023-03-25T03:32:06.254Z,65.60
2023-03-25T03:34:41.224Z,65.70
2023-03-25T03:37:09.015Z,65.70
2023-03-25T03:39:36.851Z,65.80
2023-03-25T03:42:08.127Z,65.70
2023-03-25T03:44:38.547Z,65.60
2023-03-25T03:47:05.373Z,65.60
2023-03-25T03:49:41.646Z,65.50
2023-03-25T03:52:17.978Z,65.40
2023-03-25T03:54:47.557Z,65.30
2023-03-25T03:57:21.092Z,65.10
2023-03-25T03:59:53.771Z,65.00
2023-03-25T04:02:24.678Z,64.80
2023-03-25T04:04:54.079Z,64.80
2023-03-25T04:07:28.102Z,64.80
2023-03-25T04:10:02.926Z,64.80
2023-03-25T04:12:35.667Z,64.70
2023-03-25T04:15:06.073Z,64.70
2023-03-25T04:17:35.862Z,64.60
2023-03-25T04:20:06.715Z,64.60
2023-03-25T04:22:33.614Z,64.50
2023-03-25T04:25:01.205Z,64.40
2023-03-25T04:27:32.948Z,64.30
2023-03-25T04:30:02.002Z,64.20
2023-03-25T04:32:28.992Z,64.00
2023-03-25T04:34:58.526Z,64.00
2023-03-25T04:37:28.647Z,63.80
2023-03-25T04:39:56.445Z,63.80
2023-03-25T04:42:33.214Z,63.70
2023-03-25T04:45:00.683Z,63.70
2023-03-25T04:47:27.877Z,63.70
2023-03-25T04:49:54.865Z,63.50
2023-03-25T04:52:21.915Z,63.40
2023-03-25T04:54:48.844Z,63.40
2023-03-25T04:57:15.783Z,63.20
2023-03-25T04:59:42.764Z,63.10
2023-03-25T05:02:13.619Z,63.10
2023-03-25T05:04:47.696Z,62.90
2023-03-25T05:07:16.837Z,62.90
2023-03-25T05:09:43.878Z,62.90
2023-03-25T05:12:11.684Z,62.80
2023-03-25T05:14:38.757Z,62.80
2023-03-25T05:17:05.985Z,62.70
2023-03-25T05:19:35.371Z,62.60
2023-03-25T05:22:03.402Z,62.30
2023-03-25T05:24:30.674Z,62.20
2023-03-25T05:26:57.610Z,62.20
2023-03-25T05:29:24.568Z,62.20
2023-03-25T05:31:51.518Z,62.00
2023-03-25T05:34:18.407Z,62.00
2023-03-25T05:36:45.331Z,62.00
2023-03-25T05:39:12.322Z,61.60
2023-03-25T05:41:39.383Z,61.30
2023-03-25T05:44:07.436Z,61.10
2023-03-25T05:46:34.618Z,60.80
2023-03-25T05:49:02.095Z,60.50
2023-03-25T05:51:30.127Z,60.60
2023-03-25T05:53:57.060Z,60.40
2023-03-25T05:56:24.444Z,60.20
2023-03-25T05:58:52.238Z,59.90
2023-03-25T06:01:31.863Z,59.80
2023-03-25T06:04:01.846Z,59.60
2023-03-25T06:06:29.753Z,59.40
2023-03-25T06:08:57.017Z,59.40
2023-03-25T06:11:24.002Z,59.40
2023-03-25T06:13:50.992Z,59.10
2023-03-25T06:16:18.869Z,59.00
2023-03-25T06:18:56.915Z,59.00
2023-03-25T06:21:23.998Z,59.00
2023-03-25T06:23:50.912Z,58.80
2023-03-25T06:26:18.224Z,58.70
2023-03-25T06:28:46.343Z,58.70
2023-03-25T06:31:17.810Z,58.70
2023-03-25T06:33:45.411Z,58.80
2023-03-25T06:36:12.965Z,58.80
2023-03-25T06:38:40.489Z,58.80
2023-03-25T06:41:07.534Z,58.70
2023-03-25T06:43:34.783Z,58.50
2023-03-25T06:46:01.762Z,58.50
2023-03-25T06:48:28.773Z,58.60
2023-03-25T06:50:55.866Z,58.50
2023-03-25T06:53:22.798Z,58.40
2023-03-25T06:55:49.929Z,58.30
2023-03-25T06:58:16.932Z,58.20
2023-03-25T07:00:43.897Z,58.20
2023-03-25T07:03:11.584Z,58.10
2023-03-25T07:05:38.603Z,58.10
2023-03-25T07:08:05.799Z,58.10
2023-03-25T07:10:32.791Z,58.10
2023-03-25T07:12:59.683Z,58.00
2023-03-25T07:15:26.721Z,58.00
2023-03-25T07:17:53.610Z,58.00
2023-03-25T07:20:20.818Z,57.80
2023-03-25T07:22:47.709Z,57.90
2023-03-25T07:25:14.620Z,57.90
2023-03-25T07:27:41.809Z,57.90
2023-03-25T07:30:09.111Z,57.90
2023-03-25T07:32:36.087Z,57.70
2023-03-25T07:35:03.997Z,57.60
2023-03-25T07:37:31.176Z,57.60
2023-03-25T07:39:58.072Z,57.60
2023-03-25T07:42:24.994Z,57.40
2023-03-25T07:44:52.150Z,57.20
2023-03-25T07:47:19.170Z,57.10
2023-03-25T07:49:47.060Z,56.90
2023-03-25T07:52:14.020Z,56.90
2023-03-25T07:54:41.109Z,56.80
2023-03-25T07:57:08.157Z,56.50
2023-03-25T07:59:35.151Z,56.40
2023-03-25T08:02:02.798Z,56.30
2023-03-25T08:04:29.881Z,56.20
2023-03-25T08:06:56.973Z,56.10
2023-03-25T08:09:23.944Z,56.10
2023-03-25T08:11:51.627Z,56.00
2023-03-25T08:14:18.652Z,55.70
2023-03-25T08:16:45.673Z,55.70
2023-03-25T08:19:12.642Z,55.70
2023-03-25T08:21:39.639Z,55.60
2023-03-25T08:24:06.701Z,55.40
2023-03-25T08:26:34.440Z,55.50
2023-03-25T08:29:02.981Z,55.50
2023-03-25T08:31:31.320Z,55.70
2023-03-25T08:33:59.209Z,55.70
2023-03-25T08:36:26.122Z,55.80
2023-03-25T08:38:53.421Z,56.00
2023-03-25T08:41:20.419Z,56.00
2023-03-25T08:43:47.869Z,55.70
2023-03-25T08:46:14.938Z,55.50
2023-03-25T08:48:41.970Z,55.60
2023-03-25T08:51:08.880Z,55.20
2023-03-25T08:53:36.076Z,55.00
2023-03-25T08:56:03.524Z,54.60
2023-03-25T08:58:30.482Z,54.40
2023-03-25T09:00:57.782Z,54.40
2023-03-25T09:03:25.279Z,54.00
2023-03-25T09:05:52.509Z,54.00
2023-03-25T09:08:20.004Z,53.90
2023-03-25T09:10:47.049Z,54.00
2023-03-25T09:13:14.050Z,53.90
2023-03-25T09:15:41.181Z,53.70
2023-03-25T09:18:08.310Z,53.60
2023-03-25T09:20:35.649Z,53.50
2023-03-25T09:23:02.731Z,53.30
2023-03-25T09:25:30.284Z,53.10
2023-03-25T09:27:57.350Z,53.20
2023-03-25T09:30:24.404Z,53.20
2023-03-25T09:32:51.365Z,53.30
2023-03-25T09:35:18.448Z,52.50
2023-03-25T09:37:45.949Z,52.00
2023-03-25T09:40:20.734Z,51.00
2023-03-25T09:42:47.620Z,50.50
2023-03-25T09:45:18.011Z,50.30
2023-03-25T09:47:57.966Z,49.90
2023-03-25T09:50:25.516Z,49.90
2023-03-25T09:53:16.803Z,49.90
2023-03-25T09:55:44.927Z,49.80
2023-03-25T09:58:18.086Z,49.20
2023-03-25T10:00:46.144Z,49.00
2023-03-25T10:03:13.082Z,49.10
2023-03-25T10:05:45.611Z,49.30
2023-03-25T10:08:18.547Z,49.50
2023-03-25T10:10:48.528Z,49.30
2023-03-25T10:13:22.487Z,49.30
2023-03-25T10:15:52.355Z,49.40
2023-03-25T10:18:44.405Z,49.50
2023-03-25T10:21:15.497Z,49.70
2023-03-25T10:23:43.583Z,50.20
2023-03-25T10:26:22.488Z,50.40
2023-03-25T10:29:02.086Z,49.70
2023-03-25T10:31:32.405Z,49.10
2023-03-25T10:34:01.934Z,48.60
2023-03-25T10:36:38.218Z,48.40
2023-03-25T10:39:11.475Z,47.90
2023-03-25T10:41:39.970Z,46.40
2023-03-25T10:44:11.114Z,46.10
2023-03-25T10:46:48.047Z,45.40
2023-03-25T10:49:26.906Z,45.00
2023-03-25T10:51:55.224Z,44.20
2023-03-25T10:54:23.426Z,42.20
2023-03-25T10:56:52.291Z,41.10
2023-03-25T10:59:37.878Z,42.00
2023-03-25T11:02:13.029Z,42.60
2023-03-25T11:04:41.419Z,41.80
2023-03-25T11:07:20.249Z,41.80
2023-03-25T11:09:47.426Z,41.70
2023-03-25T11:12:18.136Z,41.70
2023-03-25T11:14:45.085Z,41.60
2023-03-25T11:17:16.693Z,41.50
2023-03-25T11:19:54.217Z,41.80
2023-03-25T11:22:28.796Z,42.10
2023-03-25T11:25:06.664Z,43.00
2023-03-25T11:27:41.597Z,43.10
2023-03-25T11:30:17.173Z,41.90
2023-03-25T11:32:44.532Z,41.50
2023-03-25T11:35:19.073Z,41.50
2023-03-25T11:37:47.846Z,41.70
2023-03-25T11:40:16.589Z,41.50
2023-03-25T11:42:49.863Z,40.90
2023-03-25T11:45:21.780Z,40.80
2023-03-25T11:47:49.136Z,40.60
2023-03-25T11:50:20.580Z,40.20
2023-03-25T11:52:48.651Z,39.60
2023-03-25T11:55:17.640Z,38.70
2023-03-25T11:57:45.145Z,38.20
2023-03-25T12:00:41.456Z,38.50
2023-03-25T12:03:14.628Z,38.30
2023-03-25T12:05:42.283Z,38.10
2023-03-25T12:08:16.620Z,37.60
2023-03-25T12:10:43.612Z,38.20
2023-03-25T12:13:23.042Z,37.70
2023-03-25T12:16:19.163Z,37.60
2023-03-25T12:18:57.301Z,37.70
2023-03-25T12:21:46.994Z,37.60
2023-03-25T12:24:16.726Z,37.80
2023-03-25T12:26:50.557Z,38.20
2023-03-25T12:29:17.505Z,38.50
2023-03-25T12:32:03.598Z,38.80
2023-03-25T12:34:30.527Z,39.00
2023-03-25T12:37:17.882Z,39.30
2023-03-25T12:40:06.855Z,39.70
2023-03-25T12:42:36.990Z,40.10
2023-03-25T12:45:04.880Z,40.70
2023-03-25T12:47:36.663Z,41.00
2023-03-25T12:50:22.938Z,41.40
2023-03-25T12:53:00.407Z,42.00
2023-03-25T12:55:42.919Z,42.40
2023-03-25T12:58:18.934Z,42.70
2023-03-25T13:00:55.149Z,43.00
2023-03-25T13:03:33.933Z,43.40
2023-03-25T13:06:08.646Z,43.70
2023-03-25T13:08:53.068Z,43.80
2023-03-25T13:11:23.145Z,43.70
2023-03-25T13:13:51.626Z,43.90
2023-03-25T13:16:20.778Z,43.90
2023-03-25T13:18:48.330Z,44.00
2023-03-25T13:21:21.951Z,44.20
2023-03-25T13:23:52.753Z,44.10
2023-03-25T13:26:26.924Z,43.90
2023-03-25T13:28:58.473Z,43.80
2023-03-25T13:31:35.649Z,43.90
2023-03-25T13:34:23.095Z,44.00
2023-03-25T13:37:05.796Z,44.30
2023-03-25T13:39:45.342Z,44.60
2023-03-25T13:42:18.674Z,44.80
2023-03-25T13:44:47.724Z,44.30
2023-03-25T13:47:18.250Z,43.90
2023-03-25T13:49:51.981Z,43.50
2023-03-25T13:52:19.200Z,43.30
2023-03-25T13:54:55.501Z,43.20
2023-03-25T13:57:45.609Z,42.90
2023-03-25T14:00:24.895Z,42.70
2023-03-25T14:03:12.496Z,42.80
2023-03-25T14:05:39.581Z,43.00
2023-03-25T14:08:24.833Z,43.00
2023-03-25T14:10:59.258Z,43.20
2023-03-25T14:13:52.485Z,43.00
2023-03-25T14:16:22.950Z,43.30
2023-03-25T14:18:52.779Z,43.50
2023-03-25T14:21:31.380Z,43.40
2023-03-25T14:24:12.902Z,43.40
2023-03-25T14:26:50.901Z,43.80
2023-03-25T14:29:20.721Z,44.20
2023-03-25T14:32:25.263Z,44.40
2023-03-25T14:34:52.472Z,44.40
2023-03-25T14:37:28.870Z,44.10
2023-03-25T14:39:59.814Z,44.00
2023-03-25T14:42:32.258Z,43.70
2023-03-25T14:45:18.408Z,43.40
2023-03-25T14:47:53.609Z,43.20
2023-03-25T14:50:20.831Z,42.80
2023-03-25T14:52:50.907Z,42.60
2023-03-25T14:55:19.038Z,42.70
2023-03-25T14:57:47.063Z,42.80
2023-03-25T15:00:29.418Z,42.80
2023-03-25T15:03:11.261Z,43.00
2023-03-25T15:05:38.909Z,43.20
2023-03-25T15:08:06.781Z,43.10
2023-03-25T15:10:51.022Z,42.80
2023-03-25T15:13:24.238Z,42.50
2023-03-25T15:15:52.624Z,42.30
2023-03-25T15:18:39.927Z,42.00
2023-03-25T15:21:09.969Z,41.60
2023-03-25T15:23:41.582Z,41.40
2023-03-25T15:26:28.703Z,41.40
2023-03-25T15:29:04.141Z,41.40
2023-03-25T15:31:38.495Z,41.30
2023-03-25T15:34:17.968Z,40.50
2023-03-25T15:36:48.147Z,40.10
2023-03-25T15:39:18.506Z,40.20
2023-03-25T15:42:10.557Z,40.50
2023-03-25T15:44:49.853Z,40.80
2023-03-25T15:47:16.722Z,40.80
2023-03-25T15:50:02.363Z,40.90
2023-03-25T15:52:48.075Z,41.00
2023-03-25T15:55:19.589Z,41.20
2023-03-25T15:57:51.449Z,41.40
2023-03-25T16:00:30.146Z,41.80
2023-03-25T16:02:59.904Z,42.50
2023-03-25T16:05:27.233Z,43.70
2023-03-25T16:07:54.925Z,44.40
2023-03-25T16:10:29.481Z,45.00
2023-03-25T16:12:58.263Z,45.80
2023-03-25T16:15:27.218Z,46.60
2023-03-25T16:17:54.633Z,47.30
2023-03-25T16:20:23.388Z,48.20
2023-03-25T16:22:52.681Z,49.80
2023-03-25T16:25:22.614Z,50.80
2023-03-25T16:27:55.018Z,51.40
2023-03-25T16:30:26.895Z,52.00
2023-03-25T16:32:53.933Z,53.00
2023-03-25T16:35:25.097Z,53.50
2023-03-25T16:37:54.883Z,54.20
2023-03-25T16:40:25.804Z,54.70
2023-03-25T16:42:53.803Z,55.10
2023-03-25T16:45:21.231Z,55.20
2023-03-25T16:47:50.205Z,55.30
2023-03-25T16:50:19.987Z,55.40
2023-03-25T16:52:47.253Z,55.40
2023-03-25T16:55:26.994Z,55.40
2023-03-25T16:57:53.973Z,55.50
2023-03-25T17:00:22.544Z,55.50
2023-03-25T17:02:51.996Z,55.60
2023-03-25T17:05:20.907Z,55.60
2023-03-25T17:07:49.622Z,55.60
2023-03-25T17:10:29.464Z,55.60
2023-03-25T17:13:09.743Z,55.70
2023-03-25T17:15:37.385Z,55.80
2023-03-25T17:18:22.607Z,56.00
2023-03-25T17:20:50.276Z,56.10
2023-03-25T17:23:17.373Z,56.10
2023-03-25T17:26:01.346Z,56.30
2023-03-25T17:28:32.653Z,56.30
2023-03-25T17:30:59.825Z,56.40
2023-03-25T17:33:29.013Z,56.60
2023-03-25T17:35:56.961Z,56.90
2023-03-25T17:38:29.110Z,57.20
2023-03-25T17:41:19.356Z,57.50
2023-03-25T17:43:49.801Z,57.70
2023-03-25T17:46:21.375Z,58.20
2023-03-25T17:48:50.476Z,58.70
2023-03-25T17:51:18.820Z,59.50
2023-03-25T17:53:45.720Z,59.20
2023-03-25T17:56:13.774Z,59.90
2023-03-25T17:58:41.080Z,60.30
2023-03-25T18:01:08.446Z,61.00
2023-03-25T18:03:35.525Z,61.30
2023-03-25T18:06:02.601Z,61.60
2023-03-25T18:08:29.868Z,61.90
2023-03-25T18:10:57.119Z,61.70
2023-03-25T18:13:24.220Z,61.90
2023-03-25T18:15:51.908Z,61.80
2023-03-25T18:18:20.801Z,61.80
2023-03-25T18:20:48.090Z,61.80
2023-03-25T18:23:15.132Z,61.70
2023-03-25T18:25:42.520Z,61.80
2023-03-25T18:28:10.400Z,61.90
2023-03-25T18:30:40.661Z,61.90
2023-03-25T18:33:10.836Z,61.80
2023-03-25T18:35:44.365Z,61.70
2023-03-25T18:38:21.513Z,61.60
2023-03-25T18:40:56.838Z,62.00
2023-03-25T18:43:26.105Z,62.20
2023-03-25T18:45:53.292Z,62.90
2023-03-25T18:48:21.539Z,63.20
2023-03-25T18:50:52.728Z,63.40
2023-03-25T18:53:20.165Z,63.60
2023-03-25T18:55:47.848Z,64.20
2023-03-25T18:58:33.764Z,64.40
2023-03-25T19:01:02.022Z,65.30
2023-03-25T19:03:38.668Z,65.50
2023-03-25T19:06:07.009Z,65.60
2023-03-25T19:08:34.766Z,65.70
2023-03-25T19:11:16.473Z,65.90
2023-03-25T19:13:47.607Z,66.00
2023-03-25T19:16:14.509Z,66.00
2023-03-25T19:18:41.336Z,66.10
2023-03-25T19:21:08.462Z,66.20
2023-03-25T19:23:36.692Z,66.60
2023-03-25T19:26:04.124Z,67.00
2023-03-25T19:28:31.280Z,67.20
2023-03-25T19:31:00.163Z,66.80
2023-03-25T19:33:31.744Z,67.10
2023-03-25T19:36:01.898Z,67.50
2023-03-25T19:38:29.849Z,67.50
2023-03-25T19:41:09.901Z,67.70
2023-03-25T19:43:37.190Z,68.10
2023-03-25T19:46:05.656Z,68.50
2023-03-25T19:48:33.274Z,69.30
2023-03-25T19:51:00.261Z,69.70
2023-03-25T19:53:27.686Z,69.90
2023-03-25T19:55:55.541Z,70.10
2023-03-25T19:58:23.155Z,70.30
2023-03-25T20:00:50.486Z,70.50
2023-03-25T20:03:22.325Z,70.60
2023-03-25T20:05:50.635Z,70.60
2023-03-25T20:08:17.845Z,70.40
2023-03-25T20:10:45.344Z,70.40
2023-03-25T20:13:12.255Z,70.10
2023-03-25T20:15:39.249Z,70.30
2023-03-25T20:18:07.207Z,70.30
2023-03-25T20:20:34.246Z,70.40
2023-03-25T20:23:01.326Z,70.50
2023-03-25T20:25:28.332Z,70.30
2023-03-25T20:27:56.144Z,70.50
2023-03-25T20:30:23.101Z,70.80
2023-03-25T20:32:50.175Z,70.80
2023-03-25T20:35:17.906Z,70.80
2023-03-25T20:37:45.995Z,70.50
2023-03-25T20:40:15.616Z,70.60
2023-03-25T20:42:43.588Z,70.40
2023-03-25T20:45:11.609Z,70.40
2023-03-25T20:47:38.995Z,70.50
2023-03-25T20:50:07.481Z,70.50
2023-03-25T20:52:36.005Z,70.50
2023-03-25T20:55:02.990Z,70.10
2023-03-25T20:57:29.903Z,70.20
2023-03-25T20:59:58.200Z,70.20
2023-03-25T21:02:25.562Z,70.10
2023-03-25T21:04:55.391Z,70.10
2023-03-25T21:07:22.466Z,70.10
2023-03-25T21:09:50.015Z,70.00
2023-03-25T21:12:17.309Z,69.80
2023-03-25T21:14:44.207Z,69.80
2023-03-25T21:17:11.658Z,70.00
2023-03-25T21:19:38.567Z,69.90
2023-03-25T21:22:05.654Z,70.20
2023-03-25T21:24:34.503Z,70.30
2023-03-25T21:27:01.908Z,70.20
2023-03-25T21:29:29.196Z,70.60
2023-03-25T21:31:56.635Z,70.50
2023-03-25T21:34:25.037Z,70.40
2023-03-25T21:36:51.951Z,70.40
2023-03-25T21:39:18.803Z,70.60
2023-03-25T21:41:45.855Z,70.50
2023-03-25T21:44:16.005Z,70.40
2023-03-25T21:46:43.495Z,70.30
2023-03-25T21:49:11.812Z,70.40
2023-03-25T21:51:42.659Z,70.50
2023-03-25T21:54:10.154Z,70.80
2023-03-25T21:56:40.148Z,70.70
2023-03-25T21:59:07.091Z,70.50
2023-03-25T22:01:34.158Z,70.40
2023-03-25T22:04:01.685Z,70.80
2023-03-25T22:06:29.997Z,70.40
2023-03-25T22:08:57.342Z,70.70
2023-03-25T22:11:25.489Z,70.60
2023-03-25T22:13:52.429Z,70.40
2023-03-25T22:16:22.385Z,70.30
2023-03-25T22:18:49.804Z,70.50
2023-03-25T22:21:18.481Z,70.50
2023-03-25T22:23:46.381Z,70.50
2023-03-25T22:26:14.850Z,70.90
2023-03-25T22:28:42.039Z,70.90
2023-03-25T22:31:11.932Z,71.00
2023-03-25T22:33:39.337Z,71.20
2023-03-25T22:36:12.033Z,70.70
2023-03-25T22:38:46.476Z,70.80
2023-03-25T22:41:15.868Z,71.20
2023-03-25T22:43:43.063Z,71.30
2023-03-25T22:46:10.465Z,70.70
2023-03-25T22:48:40.312Z,71.00
2023-03-25T22:51:14.635Z,70.80
2023-03-25T22:53:41.984Z,70.60
2023-03-25T22:56:09.213Z,70.70
2023-03-25T22:58:36.251Z,70.60
2023-03-25T23:01:04.845Z,70.50
2023-03-25T23:03:32.383Z,70.40
2023-03-25T23:05:59.385Z,70.60
2023-03-25T23:08:30.135Z,70.50
2023-03-25T23:11:01.010Z,70.40
2023-03-25T23:13:30.182Z,70.40
2023-03-25T23:15:58.667Z,70.40
2023-03-25T23:18:25.631Z,70.50
2023-03-25T23:20:52.622Z,70.40
2023-03-25T23:23:22.460Z,70.40
2023-03-25T23:26:09.680Z,70.40
2023-03-25T23:28:37.804Z,70.50
2023-03-25T23:31:19.019Z,70.50
2023-03-25T23:33:46.847Z,70.60
2023-03-25T23:36:15.627Z,70.60
2023-03-25T23:38:44.397Z,70.50
2023-03-25T23:41:13.449Z,70.60
2023-03-25T23:43:44.232Z,70.50
2023-03-25T23:46:15.280Z,70.80
2023-03-25T23:48:42.168Z,70.90
2023-03-25T23:51:10.649Z,70.90
2023-03-25T23:53:38.325Z,70.90
2023-03-25T23:56:06.149Z,70.80
2023-03-25T23:58:33.515Z,70.60
